東京国際空港の過去48時間の天気

東京国際空港 (Tokyo/Intl)

現在時刻: 11/24 00:14 JST (11/23 15:14 UTC) 以下の時間は現地時間です。

過去48時間のMETAR気象情報
時間 風向 風速(m/s) 視程 気温(℃) 湿度(%) 気圧(hPa) 天気現象
24 00:00 北北西 8 10km以上 11 47 1010
23 23:30 北北西 6 10km以上 11 47 1010
23 23:00 北西 6 10km以上 11 43 1009
23 22:30 北北西 7 10km以上 12 44 1009
23 22:00 北北西 6 10km以上 12 44 1009
23 21:30 北北西 8 10km以上 12 44 1008
23 21:00 7 10km以上 13 47 1007
23 20:30 9 10km以上 13 51 1007 周辺でしゅう雨
23 20:00 7 10km以上 14 47 1006 弱い雨
23 19:30 7 10km以上 14 55 1006
23 19:00 6 10km以上 15 45 1005
23 18:30 北北西 5 10km以上 15 48 1005
23 18:00 5 10km以上 15 48 1004
23 17:30 北北東 3 10km以上 15 63 1004
23 17:00 北北西 5 10km以上 15 51 1003
23 16:30 北北西 6 10km以上 15 51 1003
23 16:00 北西 5 10km以上 16 51 1002
23 15:30 不定 1 10km以上 15 67 1002
23 15:00 4 10km以上 15 72 1001
23 14:30 4 10km以上 14 77 1000
23 14:00 北北東 4 10km以上 14 82 1000
23 13:30 5 10km以上 13 82 1000
23 13:00 4 9,000m 12 94 999
23 12:41 4 7,000m 12 88 999
23 12:30 6 7,000m 12 94 1000
23 12:00 北北西 2 7,000m 11 100 1000
23 11:42 北北西 4 7,000m 11 100 1001 弱いしゅう雨
23 11:30 6 6,000m 11 94 1000 弱いしゅう雨
23 11:10 北東 5 6,000m 10 100 1000 弱いしゅう雨
23 11:00 北北東 5 6,000m 10 100 1001 弱いしゅう雨
23 10:30 6 5,000m 10 100 1002 しゅう雨 もや
23 10:00 7 5,000m 10 94 1004 しゅう雨 もや
23 09:30 北西 2 5,000m 10 94 1005 しゅう雨 もや
23 09:00 3 5,000m 10 94 1005 しゅう雨 もや
23 08:30 不定 1 5,000m 9 100 1005 しゅう雨 もや
23 08:00 北北西 6 4,500m 9 100 1005 しゅう雨 もや
23 07:30 北北西 6 4,500m 9 93 1006 しゅう雨 もや
23 07:00 北北西 6 4,500m 9 93 1006 しゅう雨 もや
23 06:48 北北西 4 4,500m 9 93 1006 しゅう雨 もや
23 06:38 北北西 4 4,500m 9 93 1006 しゅう雨 もや
23 06:30 北北西 5 5,000m 9 87 1006 しゅう雨 もや
23 06:16 5 5,000m 9 93 1006 しゅう雨 もや
23 06:00 北北西 5 6,000m 9 87 1007 しゅう雨
23 05:48 5 7,000m 9 87 1007 しゅう雨
23 05:30 4 5,000m 8 93 1007 しゅう雨 もや
23 05:00 4 5,000m 8 87 1008 しゅう雨 もや
23 04:48 5 6,000m 8 93 1008 しゅう雨 もや
23 04:30 5 7,000m 8 93 1008 弱いしゅう雨 もや
23 04:16 5 5,000m 8 100 1009 弱いしゅう雨 もや
23 04:00 5 3,000m 8 100 1009 弱いしゅう雨 もや
23 03:30 北西 4 2,500m 8 93 1010 しゅう雨 もや
23 03:00 北西 4 2,000m 8 100 1009 しゅう雨 もや
23 02:30 北北西 4 3,000m 9 93 1009 しゅう雨 もや
23 02:00 北西 4 2,500m 8 100 1010 しゅう雨 もや
23 01:37 2 3,000m 9 93 1011 しゅう雨 もや
23 01:30 不定 1 3,000m 9 93 1011 しゅう雨 もや
23 01:13 北北東 2 3,200m 8 100 1011 しゅう雨 もや
23 01:00 東北東 2 4,500m 8 100 1011 弱いしゅう雨 もや
23 00:45 東北東 2 4,200m 9 93 1011 弱いしゅう雨 もや
23 00:30 北東 2 4,000m 9 93 1011 弱いしゅう雨 もや
23 00:00 西北西 2 4,000m 8 93 1012 弱いしゅう雨 もや
22 23:30 北西 3 5,000m 8 93 1014 弱いしゅう雨 もや
22 23:14 西 3 5,000m 8 93 1014 弱いしゅう雨 もや
22 23:00 西 3 6,000m 8 93 1014 弱いしゅう雨 もや
22 22:30 不定 1 7,000m 8 93 1015 弱いしゅう雨 もや
22 22:15 不定 1 5,000m 8 93 1015 しゅう雨 もや
22 22:00 西北西 2 7,000m 8 93 1015 弱いしゅう雨
22 21:30 3 7,000m 9 87 1015 弱いしゅう雨
22 21:00 北西 4 7,000m 8 87 1016 弱いしゅう雨
22 20:30 北北西 2 8,000m 8 81 1016 弱いしゅう雨
22 20:00 西 4 8,000m 8 81 1017 弱いしゅう雨
22 19:43 西北西 3 6,000m 9 76 1017 しゅう雨
22 19:30 西北西 3 9,000m 9 76 1017 弱いしゅう雨
22 19:00 北北西 3 10km以上 10 66 1017 弱いしゅう雨
22 18:30 北西 3 10km以上 10 66 1018 弱いしゅう雨
22 18:00 3 10km以上 11 62 1018 弱いしゅう雨
22 17:30 北北東 4 10km以上 11 62 1018 弱いしゅう雨
22 17:00 北北東 4 10km以上 12 62 1018 周辺でしゅう雨
22 16:30 北北東 3 10km以上 12 62 1018
22 16:00 不定 1 10km以上 12 58 1019
22 15:30 北北東 2 10km以上 11 58 1019
22 15:00 不定 1 10km以上 11 58 1019
22 14:30 東北東 2 10km以上 11 58 1019
22 14:00 不定 1 10km以上 11 54 1019
22 13:30 北東 2 10km以上 11 54 1020
22 13:00 北東 3 10km以上 11 50 1020
22 12:30 北北東 2 10km以上 10 50 1021
22 12:00 北東 3 10km以上 10 54 1021
22 11:30 北北東 3 10km以上 10 50 1022
22 11:00 北北東 2 10km以上 9 53 1023
22 10:30 2 10km以上 9 53 1024
22 10:00 2 10km以上 8 53 1024
22 09:30 3 10km以上 8 53 1025
22 09:00 4 10km以上 8 53 1025
22 08:30 4 10km以上 7 57 1025
22 08:00 4 10km以上 7 57 1025
22 07:30 5 10km以上 6 61 1025
22 07:00 北西 3 10km以上 5 61 1026
22 06:30 3 10km以上 6 57 1025
22 06:00 4 10km以上 6 57 1025
22 05:30 北西 3 10km以上 5 61 1026
22 05:00 5 10km以上 6 57 1025
22 04:30 北北西 4 10km以上 6 61 1026
22 04:00 北北西 3 10km以上 6 61 1025
22 03:30 4 10km以上 7 57 1025
22 03:00 3 10km以上 7 61 1025
22 02:30 西 2 10km以上 6 65 1026
22 02:00 不定 1 10km以上 6 65 1026
22 01:30 西 2 10km以上 7 61 1026
22 01:00 西北西 2 10km以上 7 57 1026
22 00:30 不定 2 10km以上 8 57 1026
RJTT 231500Z 33015KT 9999 FEW020 BKN060 11/M00 Q1010 NOSIG RMK 1CU020 6AC060 A2983
RJTT 231430Z 33011KT 300V010 9999 FEW020 BKN070 11/M00 Q1010 NOSIG RMK 1CU020 6AC070 A2982
RJTT 231400Z 32011KT 9999 FEW020 SCT080 11/M01 Q1009 NOSIG RMK 1CU020 4AC080 A2981
RJTT 231330Z 33014KT 9999 FEW020 12/M00 Q1009 NOSIG RMK 1CU020 A2981 MOD TURB OBS AT 1305Z 10NM S UTIBO 11000FT IN DES BY A330 AND OBS AT 1313Z OVER COLOR 11000FT IN DES BY B737 AND OBS AT 1322Z ADDUM 10000FT BY B763
RJTT 231300Z 33012KT 9999 FEW020 SCT090 12/00 Q1009 NOSIG RMK 1CU020 3AC090 A2979
RJTT 231230Z 34015KT 9999 FEW020 SCT080 12/00 Q1008 NOSIG RMK 1CU020 3AC080 A2978 MOD TO SEV TURB OBS AT 1210Z AROUND ADDUM BTN 10000FT AND 13000FT BY B767
RJTT 231200Z 35014KT 9999 FEW020 SCT080 13/02 Q1007 NOSIG RMK 1CU020 3AC080 A2976 MOD TURB OBS AT 1132Z 10NM S ARLON 8000FT IN DES BY B763 AND SEV TURB OBS AT 1142Z 10NM SE UTIBO BLW 12000FT IN DES BY B738
RJTT 231130Z 36017KT 9999 VCSH FEW020 BKN080 BKN100 13/03 Q1007 NOSIG RMK 1CU020 5AC080 7AC100 A2974 MOD TURB OBS AT 1113Z 5NM S UTIBO BTN 11000FT AND 10000FT IN DES BY B738
RJTT 231100Z 36014KT 9999 -RA FEW020 SCT050 BKN070 14/03 Q1006 NOSIG RMK 1CU020 4SC050 6AC070 A2972
RJTT 231030Z 01013KT 9999 FEW020 BKN050 14/05 Q1006 NOSIG RMK 1CU020 7SC050 A2971 MOD TURB OBS AT 1010Z AROUND STONE BTN 12000FT AND 11000FT BY B738 AND OBS AT 1010Z AROUND SEKIYADO BTN 13000FT AND FL160 BY B738 AND OBS AT 1025Z TAURA 12000FT IN CMB BY B7
RJTT 231000Z 35012KT 9999 FEW020 BKN050 15/03 Q1005 NOSIG RMK 1CU020 7SC050 A2970
RJTT 230930Z 34009KT 9999 FEW020 BKN050 15/04 Q1005 NOSIG RMK 1CU020 7SC050 A2969
RJTT 230900Z 36010KT 9999 FEW020 BKN050 15/04 Q1004 NOSIG RMK 1CU020 7SC050 A2967
RJTT 230830Z 03005KT 350V060 9999 FEW020 BKN050 15/08 Q1004 NOSIG RMK 1CU020 7SC050 A2966 MOD TURB OBS AT 0811Z 5NM S ARLON 6000FT BY B738
RJTT 230800Z 34010KT 9999 FEW020 BKN050 15/05 Q1003 NOSIG RMK 1CU020 7SC050 A2964
RJTT 230730Z 33011KT 9999 FEW020 BKN060 15/05 Q1003 NOSIG RMK 1CU020 6SC060 A2962
RJTT 230700Z 32010KT 9999 FEW010 BKN060 16/06 Q1002 NOSIG RMK 1ST010 6SC060 A2960
RJTT 230630Z VRB02KT 9999 FEW020 SCT060 BKN/// 15/09 Q1002 NOSIG
RJTT 230600Z 36007KT 330V040 9999 FEW010 BKN/// 15/10 Q1001 NOSIG RMK 1ST010 A2958
RJTT 230530Z 01008KT 9999 FEW010 SCT/// 14/10 Q1000 NOSIG
RJTT 230500Z 02008KT 9999 FEW008 14/11 Q1000 NOSIG RMK 2ST008 A2953
RJTT 230430Z 35010KT 9999 FEW007 13/10 Q1000 NOSIG RMK 2ST007 A2953
RJTT 230400Z 35008KT 9000 FEW006 12/11 Q0999 NOSIG RMK 2ST006 A2952
RJTT 230341Z 35008KT 310V010 7000 FEW005 SCT007 BKN150 12/10 Q0999 RMK 1ST005 4ST007 6AC150 A2952
RJTT 230330Z 35012KT 7000 FEW005 SCT007 BKN010 12/11 Q1000 BECMG FEW020 SCT040
RJTT 230300Z 34004KT 260V040 7000 FEW003 SCT007 BKN100 11/11 Q1000 NOSIG RMK 1ST003 4ST007 7AC100 A2953
RJTT 230242Z 33008KT 290V360 7000 -SHRA FEW003 BKN006 BKN020 11/11 Q1001 RMK 1ST003 5ST006 6CU020 A2957
RJTT 230230Z 36011KT 6000 -SHRA FEW003 BKN005 BKN020 11/10 Q1000 TEMPO 4000 -SHRA BR
RJTT 230210Z 04010KT 6000 -SHRA FEW003 BKN005 BKN080 10/10 Q1000 RMK 1ST003 5ST005 7AC080 A2955 P/FR
RJTT 230200Z 02010KT 6000 -SHRA FEW003 SCT005 BKN020 10/10 Q1001 TEMPO TL0230 4000 TSRA BR
RJTT 230130Z 01011KT 5000 SHRA BR FEW010 SCT030 BKN080 10/10 Q1002 TEMPO TL0230 4000 TSRA BR
RJTT 230100Z 35013KT 5000 SHRA BR FEW006 SCT030 FEW035CB BKN090 10/09 Q1004 TEMPO 4000 TSRA BR RMK 1ST006 3CU030 1CB035 6AC090 A2965 P/FR CB OHD MOV UNKNOWN
RJTT 230030Z 32004KT 290V360 5000 SHRA BR FEW006 SCT035 BKN060 10/09 Q1005 TEMPO 4000 SHRA BR
RJTT 230000Z 01006KT 5000 SHRA BR FEW006 SCT040 BKN050 10/09 Q1005 TEMPO 4000 SHRA BR RMK 1ST006 3CU040 6SC050 A2969
RJTT 222330Z VRB02KT 5000 SHRA BR FEW007 SCT040 BKN050 09/09 Q1005 TEMPO 4000 SHRA BR
RJTT 222300Z 33011KT 4500 SHRA BR FEW010 SCT040 BKN050 09/09 Q1005 NOSIG RMK 1CU010 3CU040 6SC050 A2969
RJTT 222230Z 34011KT 4500 SHRA BR FEW010 BKN040 BKN050 09/08 Q1006 NOSIG RMK 1CU010 5CU040 6SC050 A2972
RJTT 222200Z 34011KT 4500 SHRA BR FEW008 SCT015 BKN050 09/08 Q1006 TEMPO FEW008 BKN012 RMK 1ST008 4CU015 7SC050 A2972
RJTT 222148Z 34008KT 4500 SHRA BR FEW008 BKN015 BKN045 09/08 Q1006 RMK 1ST008 5CU015 6SC045 A2972
RJTT 222138Z 34008KT 4500 SHRA BR FEW008 BKN014 BKN045 09/08 Q1006 RMK 1ST008 5CU014 7SC045 A2972
RJTT 222130Z 34010KT 5000 SHRA BR FEW008 BKN014 BKN045 09/07 Q1006 TEMPO 3000 SHRA BR RMK 1ST008 5CU014 7SC045 A2973
RJTT 222116Z 35010KT 5000 SHRA BR FEW010 BKN014 BKN050 09/08 Q1006 RMK 1ST010 5CU014 7SC050 A2972
RJTT 222100Z 34009KT 6000 SHRA FEW004 BKN015 BKN040 09/07 Q1007 TEMPO 3000 SHRA BR FEW008 BKN012 RMK 1ST004 5CU015 7CU040 A2974
RJTT 222048Z 35009KT 7000 SHRA FEW004 SCT013 BKN040 09/07 Q1007 RMK 1ST004 3CU013 7CU040 A2974
RJTT 222030Z 35007KT 5000 SHRA BR FEW004 BKN013 BKN050 08/07 Q1007 TEMPO 3000 SHRA BR FEW005 BKN008
RJTT 222000Z 36008KT 5000 SHRA BR FEW004 BKN010 08/06 Q1008 TEMPO 3000 SHRA BR FEW003 BKN005 RMK 1ST004 7CU010 A2977
RJTT 221948Z 36010KT 6000 SHRA BR FEW004 BKN010 BKN035 08/07 Q1008 RMK 1ST004 6CU010 7CU035 A2978 BR SE-SW
RJTT 221930Z 36009KT 7000 -SHRA BR FEW003 SCT005 BKN010 08/07 Q1008 TEMPO 3000 SHRA BR FEW003 BKN005
RJTT 221916Z 35009KT 5000 -SHRA BR FEW003 BKN004 BKN010 08/08 Q1009 RMK 1ST003 5ST004 6CU010 A2979
RJTT 221900Z 36010KT 3000 -SHRA BR FEW003 BKN004 BKN010 08/08 Q1009 NOSIG RMK 1ST003 6ST004 7CU010 A2979 P/FR
RJTT 221830Z 32007KT 2500 SHRA BR FEW003 BKN004 BKN010 08/07 Q1010 NOSIG RMK 1ST003 6ST004 7CU010 A2983
RJTT 221800Z 32008KT 2000 SHRA BR FEW003 BKN004 BKN010 08/08 Q1009 NOSIG RMK 1ST003 6ST004 7CU010 A2981
RJTT 221730Z 33007KT 3000 SHRA BR FEW003 BKN004 BKN010 09/08 Q1009 NOSIG RMK 1ST003 5ST004 6CU010 A2982
RJTT 221700Z 31007KT 2500 SHRA BR FEW003 BKN004 BKN006 08/08 Q1010 NOSIG RMK 1ST003 5ST004 6ST006 A2985
RJTT 221637Z 35003KT 280V050 3000 SHRA BR FEW004 BKN005 BKN010 09/08 Q1011 RMK 1ST004 6ST005 7CU010 A2986
RJTT 221630Z VRB02KT 3000 SHRA BR FEW004 BKN006 BKN010 09/08 Q1011 NOSIG RMK 1ST004 6ST006 7CU010 A2986
RJTT 221613Z 03004KT 340V060 3200 SHRA BR FEW004 BKN006 BKN020 08/08 Q1011 RMK 1ST004 5ST006 6CU020 A2987
RJTT 221600Z 06004KT 020V100 4500 -SHRA BR FEW004 BKN006 BKN020 08/08 Q1011 TEMPO 3000 SHRA BR RMK 1ST004 5ST006 6CU020 A2987
RJTT 221545Z 06003KT 4200 -SHRA BR FEW004 BKN006 BKN030 09/08 Q1011 RMK 1ST004 5ST006 6CU030 A2987
RJTT 221530Z 04003KT 330V080 4000 -SHRA BR FEW005 SCT025 BKN030 09/08 Q1011 NOSIG RMK 1ST005 3CU025 6CU030 A2988
RJTT 221500Z 29003KT 4000 -SHRA BR FEW005 BKN030 BKN045 08/07 Q1012 NOSIG RMK 1ST005 5CU030 7SC045 A2991 P/FR
RJTT 221430Z 31006KT 5000 -SHRA BR FEW006 BKN035 BKN045 08/07 Q1014 TEMPO 4000 -SHRA BR
RJTT 221414Z 28005KT 5000 -SHRA BR FEW008 SCT035 BKN050 08/07 Q1014 RMK 1ST008 4CU035 7SC050 A2995
RJTT 221400Z 27005KT 6000 -SHRA BR FEW008 BKN030 BKN060 08/07 Q1014 TEMPO 4000 -SHRA BR
RJTT 221330Z VRB02KT 7000 -SHRA BR FEW015 BKN030 BKN050 08/07 Q1015 TEMPO 4000 -SHRA BR
RJTT 221315Z VRB02KT 5000 SHRA BR FEW015 BKN030 BKN050 08/07 Q1015 RMK 1CU015 6CU030 7SC050 A2997
RJTT 221300Z 30003KT 290V350 7000 -SHRA FEW015 BKN035 BKN060 08/07 Q1015 TEMPO 4000 -SHRA BR RMK 1CU015 6CU035 7SC060 A2998
RJTT 221230Z 35005KT 7000 -SHRA FEW015 BKN040 BKN050 09/07 Q1015 TEMPO 4000 -SHRA BR
RJTT 221200Z 32007KT 280V350 7000 -SHRA FEW020 SCT040 BKN050 08/06 Q1016 TEMPO 4000 -SHRA BR RMK 1CU020 3CU040 7SC050 A3002
RJTT 221130Z 33004KT 8000 -SHRA FEW020 SCT035 BKN060 08/05 Q1016 TEMPO 4000 -SHRA BR
RJTT 221100Z 28008KT 8000 -SHRA FEW020 SCT035 BKN045 08/05 Q1017 TEMPO 4000 -SHRA BR
RJTT 221043Z 30006KT 6000 SHRA FEW020 SCT035 BKN045 09/05 Q1017 RMK 1CU020 3CU035 7SC045 A3004
RJTT 221030Z 30006KT 9000 -SHRA FEW020 SCT040 BKN050 09/05 Q1017 TEMPO 4000 -SHRA BR FEW005 BKN008
RJTT 221000Z 33005KT 300V010 9999 -SHRA FEW025 BKN050 10/04 Q1017 TEMPO 4000 -SHRA BR FEW005 BKN008 RMK 1CU025 7SC050 A3005
RJTT 220930Z 31006KT 9999 -SHRA FEW025 SCT038 BKN050 10/04 Q1018 NOSIG RMK 1CU025 3CU038 6SC050 A3006
RJTT 220900Z 35006KT 9999 -SHRA FEW025 BKN035 BKN050 11/04 Q1018 NOSIG RMK 1CU025 5CU035 7SC050 A3008
RJTT 220830Z 02008KT 9999 -SHRA FEW025 BKN045 BKN070 11/04 Q1018 NOSIG RMK 2CU025 5SC045 7AC070 A3008
RJTT 220800Z 02007KT 9999 VCSH FEW030 BKN070 BKN160 12/05 Q1018 NOSIG RMK 1CU030 6AC070 7AC160 A3008
RJTT 220730Z 02005KT 9999 FEW030 SCT070 BKN160 12/05 Q1018 NOSIG RMK 1CU030 3AC070 7AC160 A3008 MOD TURB OBS AT 0720Z COLOR 11000FT BY B738
RJTT 220700Z VRB02KT 9999 FEW030 BKN170 12/04 Q1019 NOSIG RMK 1CU030 7AC170 A3009
RJTT 220630Z 03003KT 350V060 9999 FEW030 BKN170 11/03 Q1019 BECMG 08005KT
RJTT 220600Z VRB02KT 9999 FEW030 BKN180 11/03 Q1019 NOSIG RMK 1CU030 7AC180 A3011
RJTT 220530Z 06003KT 030V090 9999 FEW030 BKN180 11/03 Q1019 NOSIG RMK 1CU030 7AC180 A3010
RJTT 220500Z VRB02KT 9999 FEW030 BKN200 11/02 Q1019 NOSIG RMK 1CU030 7AC200 A3012
RJTT 220430Z 04004KT 360V070 9999 FEW030 BKN/// 11/02 Q1020 BECMG 08005KT
RJTT 220400Z 05006KT 9999 FEW030 BKN/// 11/01 Q1020 BECMG 08005KT RMK 1CU030 A3013
RJTT 220330Z 03004KT 9999 FEW030 BKN/// 10/00 Q1021 BECMG 08005KT
RJTT 220300Z 04005KT 9999 FEW030 BKN/// 10/01 Q1021 NOSIG RMK 1CU030 A3017
RJTT 220230Z 03005KT 9999 FEW030 BKN/// 10/00 Q1022 NOSIG
RJTT 220200Z 02003KT 340V060 9999 FEW030 BKN/// 09/M00 Q1023 NOSIG RMK 1CU030 A3022
RJTT 220130Z 01004KT 340V060 9999 FEW030 SCT060 BKN/// 09/00 Q1024 NOSIG
RJTT 220100Z 01004KT 9999 FEW030 BKN060 08/M01 Q1024 NOSIG RMK 1CU030 7SC060 A3026
RJTT 220030Z 36006KT 9999 FEW030 BKN060 08/M01 Q1025 NOSIG RMK 1CU030 6SC060 A3027
RJTT 220000Z 35008KT 9999 FEW030 SCT060 08/M01 Q1025 NOSIG RMK 1CU030 4SC060 A3028
RJTT 212330Z 01007KT 9999 FEW030 07/M01 Q1025 NOSIG RMK 1CU030 A3028
RJTT 212300Z 36008KT 9999 FEW030 SCT060 07/M01 Q1025 NOSIG RMK 1CU030 3SC060 A3029
RJTT 212230Z 36009KT 9999 FEW030 SCT060 06/M01 Q1025 NOSIG RMK 1CU030 4SC060 A3029
RJTT 212200Z 32005KT 280V360 9999 FEW030 BKN060 05/M02 Q1026 NOSIG RMK 1CU030 5SC060 A3030
RJTT 212130Z 35006KT 9999 FEW030 SCT060 06/M02 Q1025 NOSIG RMK 1CU030 3SC060 A3029
RJTT 212100Z 36008KT 9999 FEW030 SCT060 06/M02 Q1025 NOSIG RMK 1CU030 3SC060 A3029
RJTT 212030Z 32006KT 300V010 9999 FEW030 BKN060 05/M02 Q1026 NOSIG RMK 1CU030 5SC060 A3030
RJTT 212000Z 35009KT 9999 FEW030 BKN060 06/M02 Q1025 NOSIG RMK 1CU030 5SC060 A3029
RJTT 211930Z 34007KT 9999 FEW030 06/M01 Q1026 NOSIG RMK 1CU030 A3030
RJTT 211900Z 33005KT 300V010 9999 FEW030 06/M01 Q1025 NOSIG RMK 1CU030 A3029
RJTT 211830Z 36007KT 9999 FEW030 SCT060 07/M01 Q1025 NOSIG RMK 1CU030 3SC060 A3029
RJTT 211800Z 35005KT 300V040 9999 FEW030 07/M00 Q1025 NOSIG RMK 1CU030 A3029
RJTT 211730Z 28004KT 9999 FEW030 SCT050 06/M00 Q1026 NOSIG RMK 1CU030 3SC050 A3031
RJTT 211700Z VRB02KT 9999 FEW030 06/00 Q1026 BECMG 36005KT RMK 1CU030 A3031
RJTT 211630Z 28004KT 9999 FEW030 07/00 Q1026 NOSIG RMK 1CU030 A3031
RJTT 211600Z 30004KT 9999 FEW030 07/M01 Q1026 NOSIG RMK 1CU030 A3032
RJTT 211530Z VRB03KT 9999 FEW030 08/00 Q1026 BECMG 36005KT